sensor_id;sensor_type;location;lat;lon;timestamp;pressure;altitude;pressure_sealevel;temperature;humidity
6829;BME280;17930;48.592;8.868;2023-02-02T00:00:11;97452.78;;;4.64;100.00
6829;BME280;17930;48.592;8.868;2023-02-02T00:02:38;97455.16;;;4.65;100.00
6829;BME280;17930;48.592;8.868;2023-02-02T00:05:06;97464.03;;;4.69;100.00
6829;BME280;17930;48.592;8.868;2023-02-02T00:07:35;97455.31;;;4.70;100.00
6829;BME280;17930;48.592;8.868;2023-02-02T00:10:02;97462.84;;;4.72;100.00
6829;BME280;17930;48.592;8.868;2023-02-02T00:12:28;97446.47;;;4.78;100.00
6829;BME280;17930;48.592;8.868;2023-02-02T00:14:55;97437.91;;;4.77;100.00
6829;BME280;17930;48.592;8.868;2023-02-02T00:17:22;97436.34;;;4.76;100.00
6829;BME280;17930;48.592;8.868;2023-02-02T00:19:48;97436.56;;;4.75;100.00
6829;BME280;17930;48.592;8.868;2023-02-02T00:22:15;97442.28;;;4.77;100.00
6829;BME280;17930;48.592;8.868;2023-02-02T00:24:43;97444.44;;;4.80;100.00
6829;BME280;17930;48.592;8.868;2023-02-02T00:27:09;97436.34;;;4.76;100.00
6829;BME280;17930;48.592;8.868;2023-02-02T00:29:36;97438.78;;;4.71;100.00
6829;BME280;17930;48.592;8.868;2023-02-02T00:32:04;97443.94;;;4.71;100.00
6829;BME280;17930;48.592;8.868;2023-02-02T00:34:31;97446.19;;;4.68;100.00
6829;BME280;17930;48.592;8.868;2023-02-02T00:36:57;97442.78;;;4.67;100.00
6829;BME280;17930;48.592;8.868;2023-02-02T00:39:24;97440.22;;;4.67;100.00
6829;BME280;17930;48.592;8.868;2023-02-02T00:41:53;97442.78;;;4.67;100.00
6829;BME280;17930;48.592;8.868;2023-02-02T00:44:20;97444.03;;;4.65;100.00
6829;BME280;17930;48.592;8.868;2023-02-02T00:47:04;97448.72;;;4.57;100.00
6829;BME280;17930;48.592;8.868;2023-02-02T00:49:31;97438.59;;;4.55;100.00
6829;BME280;17930;48.592;8.868;2023-02-02T00:51:58;97447.34;;;4.54;100.00
6829;BME280;17930;48.592;8.868;2023-02-02T00:54:25;97441.19;;;4.55;100.00
6829;BME280;17930;48.592;8.868;2023-02-02T00:56:53;97442.19;;;4.54;100.00
6829;BME280;17930;48.592;8.868;2023-02-02T00:59:20;97449.91;;;4.54;100.00
6829;BME280;17930;48.592;8.868;2023-02-02T01:01:46;97447.91;;;4.56;100.00
6829;BME280;17930;48.592;8.868;2023-02-02T01:04:13;97440.31;;;4.61;100.00
6829;BME280;17930;48.592;8.868;2023-02-02T01:06:40;97437.34;;;4.57;100.00
6829;BME280;17930;48.592;8.868;2023-02-02T01:09:06;97447.63;;;4.64;100.00
6829;BME280;17930;48.592;8.868;2023-02-02T01:11:33;97442.22;;;4.65;100.00
6829;BME280;17930;48.592;8.868;2023-02-02T01:14:01;97438.44;;;4.68;100.00
6829;BME280;17930;48.592;8.868;2023-02-02T01:16:28;97439.22;;;4.68;100.00
6829;BME280;17930;48.592;8.868;2023-02-02T01:18:54;97444.03;;;4.65;100.00
6829;BME280;17930;48.592;8.868;2023-02-02T01:21:21;97454.38;;;4.65;100.00
6829;BME280;17930;48.592;8.868;2023-02-02T01:23:48;97454.72;;;4.68;100.00
6829;BME280;17930;48.592;8.868;2023-02-02T01:26:16;97464.38;;;4.73;100.00
6829;BME280;17930;48.592;8.868;2023-02-02T01:28:43;97454.28;;;4.71;100.00
6829;BME280;17930;48.592;8.868;2023-02-02T01:31:12;97454.06;;;4.73;100.00
6829;BME280;17930;48.592;8.868;2023-02-02T01:33:39;97463.72;;;4.77;100.00
6829;BME280;17930;48.592;8.868;2023-02-02T01:36:09;97457.34;;;4.80;100.00
6829;BME280;17930;48.592;8.868;2023-02-02T01:38:36;97463.41;;;4.74;100.00
6829;BME280;17930;48.592;8.868;2023-02-02T01:41:03;97462.41;;;4.75;100.00
6829;BME280;17930;48.592;8.868;2023-02-02T01:43:50;97458.22;;;4.74;100.00
6829;BME280;17930;48.592;8.868;2023-02-02T01:46:20;97451.03;;;4.76;100.00
6829;BME280;17930;48.592;8.868;2023-02-02T01:48:50;97454.31;;;4.83;100.00
6829;BME280;17930;48.592;8.868;2023-02-02T01:51:21;97455.69;;;4.85;100.00
6829;BME280;17930;48.592;8.868;2023-02-02T01:53:50;97446.13;;;4.86;100.00
6829;BME280;17930;48.592;8.868;2023-02-02T01:56:24;97449.22;;;4.94;100.00
6829;BME280;17930;48.592;8.868;2023-02-02T01:58:52;97452.59;;;4.95;100.00
6829;BME280;17930;48.592;8.868;2023-02-02T02:01:20;97453.16;;;4.97;100.00
6829;BME280;17930;48.592;8.868;2023-02-02T02:03:47;97455.97;;;4.95;100.00
6829;BME280;17930;48.592;8.868;2023-02-02T02:06:15;97455.63;;;4.92;100.00
6829;BME280;17930;48.592;8.868;2023-02-02T02:08:46;97455.63;;;4.92;100.00
6829;BME280;17930;48.592;8.868;2023-02-02T02:11:14;97452.13;;;4.86;100.00
6829;BME280;17930;48.592;8.868;2023-02-02T02:13:40;97453.34;;;4.84;100.00
6829;BME280;17930;48.592;8.868;2023-02-02T02:16:32;97451.03;;;4.76;100.00
6829;BME280;17930;48.592;8.868;2023-02-02T02:21:55;97450.75;;;4.66;100.00
6829;BME280;17930;48.592;8.868;2023-02-02T02:28:24;97455.94;;;4.66;100.00
6829;BME280;17930;48.592;8.868;2023-02-02T02:31:06;97454.81;;;4.62;100.00
6829;BME280;17930;48.592;8.868;2023-02-02T02:33:45;97461.09;;;4.66;100.00
6829;BME280;17930;48.592;8.868;2023-02-02T02:36:17;97456.38;;;4.63;100.00
6829;BME280;17930;48.592;8.868;2023-02-02T02:38:49;97462.41;;;4.57;100.00
6829;BME280;17930;48.592;8.868;2023-02-02T02:41:21;97449.22;;;4.65;100.00
6829;BME280;17930;48.592;8.868;2023-02-02T02:43:51;97453.13;;;4.67;100.00
6829;BME280;17930;48.592;8.868;2023-02-02T02:46:20;97444.81;;;4.65;100.00
6829;BME280;17930;48.592;8.868;2023-02-02T02:48:49;97451.78;;;4.65;100.00
6829;BME280;17930;48.592;8.868;2023-02-02T02:51:49;97446.47;;;4.60;100.00
6829;BME280;17930;48.592;8.868;2023-02-02T02:54:18;97458.72;;;4.64;100.00
6829;BME280;17930;48.592;8.868;2023-02-02T02:57:07;97449.09;;;4.71;100.00
6829;BME280;17930;48.592;8.868;2023-02-02T02:59:46;97452.28;;;4.73;100.00
6829;BME280;17930;48.592;8.868;2023-02-02T03:02:25;97450.03;;;4.77;100.00
6829;BME280;17930;48.592;8.868;2023-02-02T03:05:06;97461.38;;;4.76;100.00
6829;BME280;17930;48.592;8.868;2023-02-02T03:07:40;97463.53;;;4.79;100.00
6829;BME280;17930;48.592;8.868;2023-02-02T03:10:10;97458.94;;;4.81;100.00
6829;BME280;17930;48.592;8.868;2023-02-02T03:12:43;97466.91;;;4.79;100.00
6829;BME280;17930;48.592;8.868;2023-02-02T03:15:11;97458.56;;;4.77;100.00
6829;BME280;17930;48.592;8.868;2023-02-02T03:17:38;97459.38;;;4.78;100.00
6829;BME280;17930;48.592;8.868;2023-02-02T03:20:08;97457.06;;;4.70;100.00
6829;BME280;17930;48.592;8.868;2023-02-02T03:22:35;97452.56;;;4.65;100.00
6829;BME280;17930;48.592;8.868;2023-02-02T03:25:01;97458.38;;;4.61;100.00
6829;BME280;17930;48.592;8.868;2023-02-02T03:27:28;97455.81;;;4.61;100.00
6829;BME280;17930;48.592;8.868;2023-02-02T03:29:55;97455.22;;;4.59;100.00
6829;BME280;17930;48.592;8.868;2023-02-02T03:32:22;97452.06;;;4.57;100.00
6829;BME280;17930;48.592;8.868;2023-02-02T03:34:48;97450.47;;;4.56;100.00
6829;BME280;17930;48.592;8.868;2023-02-02T03:37:16;97454.44;;;4.58;100.00
6829;BME280;17930;48.592;8.868;2023-02-02T03:39:43;97466.78;;;4.57;100.00
6829;BME280;17930;48.592;8.868;2023-02-02T03:42:10;97463.56;;;4.61;100.00
6829;BME280;17930;48.592;8.868;2023-02-02T03:44:36;97469.06;;;4.64;100.00
6829;BME280;17930;48.592;8.868;2023-02-02T03:47:03;97476.59;;;4.66;100.00
6829;BME280;17930;48.592;8.868;2023-02-02T03:49:29;97473.59;;;4.69;100.00
6829;BME280;17930;48.592;8.868;2023-02-02T03:51:56;97472.13;;;4.73;100.00
6829;BME280;17930;48.592;8.868;2023-02-02T03:54:24;97471.00;;;4.69;100.00
6829;BME280;17930;48.592;8.868;2023-02-02T03:56:51;97468.28;;;4.64;100.00
6829;BME280;17930;48.592;8.868;2023-02-02T03:59:17;97465.47;;;4.65;100.00
6829;BME280;17930;48.592;8.868;2023-02-02T04:01:44;97463.56;;;4.61;100.00
6829;BME280;17930;48.592;8.868;2023-02-02T04:04:11;97465.97;;;4.56;100.00
6829;BME280;17930;48.592;8.868;2023-02-02T04:06:37;97462.41;;;4.57;100.00
6829;BME280;17930;48.592;8.868;2023-02-02T04:09:04;97458.44;;;4.55;100.00
6829;BME280;17930;48.592;8.868;2023-02-02T04:11:32;97468.78;;;4.55;100.00
6829;BME280;17930;48.592;8.868;2023-02-02T04:13:59;97467.94;;;4.60;100.00
6829;BME280;17930;48.592;8.868;2023-02-02T04:16:25;97465.13;;;4.62;100.00
6829;BME280;17930;48.592;8.868;2023-02-02T04:18:52;97475.47;;;4.62;100.00
6829;BME280;17930;48.592;8.868;2023-02-02T04:21:19;97472.28;;;4.60;100.00
6829;BME280;17930;48.592;8.868;2023-02-02T04:23:45;97489.16;;;4.62;100.00
6829;BME280;17930;48.592;8.868;2023-02-02T04:26:12;97483.56;;;4.65;100.00
6829;BME280;17930;48.592;8.868;2023-02-02T04:28:40;97481.75;;;4.66;100.00
6829;BME280;17930;48.592;8.868;2023-02-02T04:31:06;97465.84;;;4.69;100.00
6829;BME280;17930;48.592;8.868;2023-02-02T04:33:33;97474.59;;;4.68;100.00
6829;BME280;17930;48.592;8.868;2023-02-02T04:36:00;97475.16;;;4.70;100.00
6829;BME280;17930;48.592;8.868;2023-02-02T04:38:27;97470.59;;;4.72;100.00
6829;BME280;17930;48.592;8.868;2023-02-02T04:40:54;97467.34;;;4.76;100.00
6829;BME280;17930;48.592;8.868;2023-02-02T04:43:21;97474.44;;;4.81;100.00
6829;BME280;17930;48.592;8.868;2023-02-02T04:45:53;97471.28;;;4.79;100.00
6829;BME280;17930;48.592;8.868;2023-02-02T04:48:20;97480.59;;;4.80;100.00
6829;BME280;17930;48.592;8.868;2023-02-02T04:50:47;97488.34;;;4.80;100.00
6829;BME280;17930;48.592;8.868;2023-02-02T04:53:13;97497.53;;;4.76;100.00
6829;BME280;17930;48.592;8.868;2023-02-02T04:55:40;97498.41;;;4.70;100.00
6829;BME280;17930;48.592;8.868;2023-02-02T04:58:07;97490.81;;;4.75;100.00
6829;BME280;17930;48.592;8.868;2023-02-02T05:00:33;97496.25;;;4.85;100.00
6829;BME280;17930;48.592;8.868;2023-02-02T05:03:02;97485.59;;;4.93;100.00
6829;BME280;17930;48.592;8.868;2023-02-02T05:05:28;97488.19;;;4.93;100.00
6829;BME280;17930;48.592;8.868;2023-02-02T05:07:55;97489.66;;;4.89;100.00
6829;BME280;17930;48.592;8.868;2023-02-02T05:10:21;97493.78;;;4.90;100.00
6829;BME280;17930;48.592;8.868;2023-02-02T05:12:51;97498.19;;;4.89;100.00
6829;BME280;17930;48.592;8.868;2023-02-02T05:18:14;97492.47;;;4.69;100.00
6829;BME280;17930;48.592;8.868;2023-02-02T05:20:41;97492.69;;;4.68;100.00
6829;BME280;17930;48.592;8.868;2023-02-02T05:23:08;97508.03;;;4.63;100.00
6829;BME280;17930;48.592;8.868;2023-02-02T05:25:34;97510.97;;;4.66;100.00
6829;BME280;17930;48.592;8.868;2023-02-02T05:28:01;97507.59;;;4.66;100.00
6829;BME280;17930;48.592;8.868;2023-02-02T05:30:55;97501.63;;;4.65;100.00
6829;BME280;17930;48.592;8.868;2023-02-02T05:33:27;97502.00;;;4.69;100.00
6829;BME280;17930;48.592;8.868;2023-02-02T05:35:54;97506.38;;;4.68;100.00
6829;BME280;17930;48.592;8.868;2023-02-02T05:38:20;97508.31;;;4.73;100.00
6829;BME280;17930;48.592;8.868;2023-02-02T05:40:47;97503.56;;;4.70;100.00
6829;BME280;17930;48.592;8.868;2023-02-02T05:43:14;97523.38;;;4.76;100.00
6829;BME280;17930;48.592;8.868;2023-02-02T05:45:41;97520.94;;;4.81;100.00
6829;BME280;17930;48.592;8.868;2023-02-02T05:48:09;97517.16;;;4.83;100.00
6829;BME280;17930;48.592;8.868;2023-02-02T05:50:39;97528.25;;;4.84;100.00
6829;BME280;17930;48.592;8.868;2023-02-02T05:53:07;97521.38;;;4.78;100.00
6829;BME280;17930;48.592;8.868;2023-02-02T05:55:35;97536.44;;;4.81;100.00
6829;BME280;17930;48.592;8.868;2023-02-02T05:58:02;97538.31;;;4.74;100.00
6829;BME280;17930;48.592;8.868;2023-02-02T06:00:28;97545.13;;;4.68;100.00
6829;BME280;17930;48.592;8.868;2023-02-02T06:02:55;97530.69;;;4.61;100.00
6829;BME280;17930;48.592;8.868;2023-02-02T06:05:22;97525.53;;;4.61;100.00
6829;BME280;17930;48.592;8.868;2023-02-02T06:07:50;97526.75;;;4.58;100.00
6829;BME280;17930;48.592;8.868;2023-02-02T06:10:17;97535.34;;;4.53;100.00
6829;BME280;17930;48.592;8.868;2023-02-02T06:12:43;97536.56;;;4.50;100.00
6829;BME280;17930;48.592;8.868;2023-02-02T06:15:10;97542.16;;;4.47;100.00
6829;BME280;17930;48.592;8.868;2023-02-02T06:17:37;97543.53;;;4.50;100.00
6829;BME280;17930;48.592;8.868;2023-02-02T06:20:04;97546.47;;;4.53;100.00
6829;BME280;17930;48.592;8.868;2023-02-02T06:22:32;97545.81;;;4.57;100.00
6829;BME280;17930;48.592;8.868;2023-02-02T06:25:00;97548.63;;;4.56;100.00
6829;BME280;17930;48.592;8.868;2023-02-02T06:27:28;97554.22;;;4.53;100.00
6829;BME280;17930;48.592;8.868;2023-02-02T06:29:55;97549.47;;;4.50;100.00
6829;BME280;17930;48.592;8.868;2023-02-02T06:32:22;97556.44;;;4.50;100.00
6829;BME280;17930;48.592;8.868;2023-02-02T06:34:52;97554.09;;;4.48;100.00
6829;BME280;17930;48.592;8.868;2023-02-02T06:37:18;97556.06;;;4.46;100.00
6829;BME280;17930;48.592;8.868;2023-02-02T06:39:45;97561.81;;;4.48;100.00
6829;BME280;17930;48.592;8.868;2023-02-02T06:42:13;97568.19;;;4.46;100.00
6829;BME280;17930;48.592;8.868;2023-02-02T06:44:40;97567.41;;;4.45;100.00
6829;BME280;17930;48.592;8.868;2023-02-02T06:47:07;97568.97;;;4.46;100.00
6829;BME280;17930;48.592;8.868;2023-02-02T06:49:34;97566.81;;;4.43;100.00
6829;BME280;17930;48.592;8.868;2023-02-02T06:52:01;97565.84;;;4.44;100.00
6829;BME280;17930;48.592;8.868;2023-02-02T06:54:27;97568.19;;;4.46;100.00
6829;BME280;17930;48.592;8.868;2023-02-02T06:56:54;97569.34;;;4.50;100.00
6829;BME280;17930;48.592;8.868;2023-02-02T06:59:22;97561.81;;;4.48;100.00
6829;BME280;17930;48.592;8.868;2023-02-02T07:01:49;97567.97;;;4.47;100.00
6829;BME280;17930;48.592;8.868;2023-02-02T07:04:16;97560.25;;;4.47;100.00
6829;BME280;17930;48.592;8.868;2023-02-02T07:06:43;97562.56;;;4.55;100.00
6829;BME280;17930;48.592;8.868;2023-02-02T07:09:10;97568.16;;;4.52;100.00
6829;BME280;17930;48.592;8.868;2023-02-02T07:11:37;97560.53;;;4.57;100.00
6829;BME280;17930;48.592;8.868;2023-02-02T07:14:04;97567.72;;;4.55;100.00
6829;BME280;17930;48.592;8.868;2023-02-02T07:16:32;97558.94;;;4.56;100.00
6829;BME280;17930;48.592;8.868;2023-02-02T07:18:59;97550.16;;;4.63;100.00
6829;BME280;17930;48.592;8.868;2023-02-02T07:21:26;97545.78;;;4.64;100.00
6829;BME280;17930;48.592;8.868;2023-02-02T07:23:54;97542.53;;;4.68;100.00
6829;BME280;17930;48.592;8.868;2023-02-02T07:26:21;97548.06;;;4.72;100.00
6829;BME280;17930;48.592;8.868;2023-02-02T07:28:48;97553.69;;;4.69;100.00
6829;BME280;17930;48.592;8.868;2023-02-02T07:31:16;97557.97;;;4.75;100.00
6829;BME280;17930;48.592;8.868;2023-02-02T07:33:45;97553.88;;;4.85;100.00
6829;BME280;17930;48.592;8.868;2023-02-02T07:36:14;97553.31;;;4.83;100.00
6829;BME280;17930;48.592;8.868;2023-02-02T07:38:41;97557.53;;;4.78;100.00
6829;BME280;17930;48.592;8.868;2023-02-02T07:41:09;97551.50;;;4.84;100.00
6829;BME280;17930;48.592;8.868;2023-02-02T07:43:35;97563.78;;;4.88;100.00
6829;BME280;17930;48.592;8.868;2023-02-02T07:46:04;97562.63;;;4.84;100.00
6829;BME280;17930;48.592;8.868;2023-02-02T07:48:32;97563.94;;;4.93;100.00
6829;BME280;17930;48.592;8.868;2023-02-02T07:51:01;97567.84;;;5.13;100.00
6829;BME280;17930;48.592;8.868;2023-02-02T07:53:28;97562.56;;;5.08;100.00
6829;BME280;17930;48.592;8.868;2023-02-02T07:56:05;97569.59;;;5.02;100.00
6829;BME280;17930;48.592;8.868;2023-02-02T07:58:32;97566.72;;;5.09;100.00
6829;BME280;17930;48.592;8.868;2023-02-02T08:01:00;97566.28;;;5.12;100.00
6829;BME280;17930;48.592;8.868;2023-02-02T08:03:26;97557.63;;;5.07;100.00
6829;BME280;17930;48.592;8.868;2023-02-02T08:05:53;97565.00;;;5.21;100.00
6829;BME280;17930;48.592;8.868;2023-02-02T08:08:21;97569.34;;;5.21;100.00
6829;BME280;17930;48.592;8.868;2023-02-02T08:10:48;97577.91;;;5.21;100.00
6829;BME280;17930;48.592;8.868;2023-02-02T08:13:15;97572.97;;;5.20;100.00
6829;BME280;17930;48.592;8.868;2023-02-02T08:15:41;97580.50;;;5.21;100.00
6829;BME280;17930;48.592;8.868;2023-02-02T08:18:08;97580.50;;;5.21;100.00
6829;BME280;17930;48.592;8.868;2023-02-02T08:20:35;97587.22;;;5.22;100.00
6829;BME280;17930;48.592;8.868;2023-02-02T08:23:02;97581.78;;;5.30;100.00
6829;BME280;17930;48.592;8.868;2023-02-02T08:25:30;97573.56;;;5.33;100.00
6829;BME280;17930;48.592;8.868;2023-02-02T08:27:57;97577.88;;;5.39;100.00
6829;BME280;17930;48.592;8.868;2023-02-02T08:30:25;97575.00;;;5.47;100.00
6829;BME280;17930;48.592;8.868;2023-02-02T08:32:52;97577.81;;;5.46;100.00
6829;BME280;17930;48.592;8.868;2023-02-02T08:35:19;97571.66;;;5.58;100.00
6829;BME280;17930;48.592;8.868;2023-02-02T08:37:46;97575.50;;;5.67;100.00
6829;BME280;17930;48.592;8.868;2023-02-02T08:40:13;97576.22;;;5.74;100.00
6829;BME280;17930;48.592;8.868;2023-02-02T08:42:41;97570.63;;;5.77;100.00
6829;BME280;17930;48.592;8.868;2023-02-02T08:45:10;97581.97;;;5.76;100.00
6829;BME280;17930;48.592;8.868;2023-02-02T08:47:36;97593.75;;;5.72;100.00
6829;BME280;17930;48.592;8.868;2023-02-02T08:50:04;97609.59;;;5.64;100.00
6829;BME280;17930;48.592;8.868;2023-02-02T08:52:31;97602.50;;;5.59;100.00
6829;BME280;17930;48.592;8.868;2023-02-02T08:54:57;97617.78;;;5.61;100.00
6829;BME280;17930;48.592;8.868;2023-02-02T08:57:25;97615.06;;;5.56;100.00
6829;BME280;17930;48.592;8.868;2023-02-02T08:59:53;97618.22;;;5.58;100.00
6829;BME280;17930;48.592;8.868;2023-02-02T09:02:20;97616.09;;;5.55;100.00
6829;BME280;17930;48.592;8.868;2023-02-02T09:04:47;97635.75;;;5.56;100.00
6829;BME280;17930;48.592;8.868;2023-02-02T09:07:13;97641.94;;;5.55;100.00
6829;BME280;17930;48.592;8.868;2023-02-02T09:09:40;97649.56;;;5.50;100.00
6829;BME280;17930;48.592;8.868;2023-02-02T09:12:07;97648.63;;;5.45;100.00
6829;BME280;17930;48.592;8.868;2023-02-02T09:14:34;97649.50;;;5.39;100.00
6829;BME280;17930;48.592;8.868;2023-02-02T09:17:02;97650.72;;;5.36;100.00
6829;BME280;17930;48.592;8.868;2023-02-02T09:19:29;97667.03;;;5.37;100.00
6829;BME280;17930;48.592;8.868;2023-02-02T09:21:55;97659.41;;;5.42;100.00
6829;BME280;17930;48.592;8.868;2023-02-02T09:24:22;97646.91;;;5.39;100.00
6829;BME280;17930;48.592;8.868;2023-02-02T09:26:49;97649.94;;;5.36;100.00
6829;BME280;17930;48.592;8.868;2023-02-02T09:29:16;97659.41;;;5.42;100.00
6829;BME280;17930;48.592;8.868;2023-02-02T09:31:43;97652.00;;;5.45;100.00
6829;BME280;17930;48.592;8.868;2023-02-02T09:34:13;97667.66;;;5.50;100.00
6829;BME280;17930;48.592;8.868;2023-02-02T09:36:41;97663.22;;;5.39;100.00
6829;BME280;17930;48.592;8.868;2023-02-02T09:39:09;97658.69;;;5.35;100.00
6829;BME280;17930;48.592;8.868;2023-02-02T09:42:12;97658.41;;;5.25;100.00
6829;BME280;17930;48.592;8.868;2023-02-02T09:44:58;97675.13;;;5.22;100.00
6829;BME280;17930;48.592;8.868;2023-02-02T09:47:35;97672.72;;;5.27;100.00
6829;BME280;17930;48.592;8.868;2023-02-02T09:50:15;97669.53;;;5.25;100.00
6829;BME280;17930;48.592;8.868;2023-02-02T09:52:47;97675.28;;;5.27;100.00
6829;BME280;17930;48.592;8.868;2023-02-02T09:55:22;97690.72;;;5.34;100.00
6829;BME280;17930;48.592;8.868;2023-02-02T09:57:53;97680.16;;;5.35;100.00
6829;BME280;17930;48.592;8.868;2023-02-02T10:00:28;97685.53;;;5.34;100.00
6829;BME280;17930;48.592;8.868;2023-02-02T10:02:59;97678.16;;;5.37;100.00
6829;BME280;17930;48.592;8.868;2023-02-02T10:05:45;97677.44;;;5.30;100.00
6829;BME280;17930;48.592;8.868;2023-02-02T10:08:19;97676.31;;;5.44;100.00
6829;BME280;17930;48.592;8.868;2023-02-02T10:10:49;97681.16;;;5.52;100.00
6829;BME280;17930;48.592;8.868;2023-02-02T10:13:20;97687.06;;;5.59;100.00
6829;BME280;17930;48.592;8.868;2023-02-02T10:15:52;97690.38;;;5.48;100.00
6829;BME280;17930;48.592;8.868;2023-02-02T10:18:30;97696.47;;;5.36;100.00
6829;BME280;17930;48.592;8.868;2023-02-02T10:21:03;97684.50;;;5.41;100.00
6829;BME280;17930;48.592;8.868;2023-02-02T10:23:33;97683.19;;;5.50;100.00
6829;BME280;17930;48.592;8.868;2023-02-02T10:26:06;97686.78;;;5.49;100.00
6829;BME280;17930;48.592;8.868;2023-02-02T10:28:41;97679.88;;;5.43;100.00
6829;BME280;17930;48.592;8.868;2023-02-02T10:31:16;97670.41;;;5.37;100.00
6829;BME280;17930;48.592;8.868;2023-02-02T10:33:56;97664.34;;;5.25;100.00
6829;BME280;17930;48.592;8.868;2023-02-02T10:36:33;97664.50;;;5.30;100.00
6829;BME280;17930;48.592;8.868;2023-02-02T10:39:17;97657.31;;;5.32;100.00
6829;BME280;17930;48.592;8.868;2023-02-02T10:41:55;97672.69;;;5.45;100.00
6829;BME280;17930;48.592;8.868;2023-02-02T10:44:32;97673.28;;;5.47;100.00
6829;BME280;17930;48.592;8.868;2023-02-02T10:47:04;97668.09;;;5.47;100.00
6829;BME280;17930;48.592;8.868;2023-02-02T10:49:33;97681.47;;;5.44;100.00
6829;BME280;17930;48.592;8.868;2023-02-02T10:52:10;97683.69;;;5.41;100.00
6829;BME280;17930;48.592;8.868;2023-02-02T10:54:52;97683.47;;;5.60;100.00
6829;BME280;17930;48.592;8.868;2023-02-02T10:57:33;97690.78;;;5.45;100.00
6829;BME280;17930;48.592;8.868;2023-02-02T11:00:13;97694.84;;;5.41;100.00
6829;BME280;17930;48.592;8.868;2023-02-02T11:02:41;97694.19;;;5.46;100.00
6829;BME280;17930;48.592;8.868;2023-02-02T11:05:19;97688.84;;;5.41;100.00
6829;BME280;17930;48.592;8.868;2023-02-02T11:08:12;97693.75;;;5.31;100.00
6829;BME280;17930;48.592;8.868;2023-02-02T11:10:39;97687.44;;;5.45;100.00
6829;BME280;17930;48.592;8.868;2023-02-02T11:13:10;97680.03;;;5.48;100.00
6829;BME280;17930;48.592;8.868;2023-02-02T11:15:37;97688.78;;;5.47;100.00
6829;BME280;17930;48.592;8.868;2023-02-02T11:18:26;97694.31;;;5.51;100.00
6829;BME280;17930;48.592;8.868;2023-02-02T11:20:53;97698.44;;;5.58;100.00
6829;BME280;17930;48.592;8.868;2023-02-02T11:23:25;97696.28;;;5.55;100.00
6829;BME280;17930;48.592;8.868;2023-02-02T11:25:57;97686.34;;;5.52;100.00
6829;BME280;17930;48.592;8.868;2023-02-02T11:28:25;97681.59;;;5.49;100.00
6829;BME280;17930;48.592;8.868;2023-02-02T11:30:55;97684.78;;;5.51;100.00
6829;BME280;17930;48.592;8.868;2023-02-02T11:33:27;97687.59;;;5.50;100.00
6829;BME280;17930;48.592;8.868;2023-02-02T11:35:56;97686.72;;;5.56;100.00
6829;BME280;17930;48.592;8.868;2023-02-02T11:38:25;97689.78;;;5.64;100.00
6829;BME280;17930;48.592;8.868;2023-02-02T11:40:54;97689.19;;;5.62;100.00
6829;BME280;17930;48.592;8.868;2023-02-02T11:43:25;97686.22;;;5.65;100.00
6829;BME280;17930;48.592;8.868;2023-02-02T11:45:56;97687.06;;;5.77;100.00
6829;BME280;17930;48.592;8.868;2023-02-02T11:48:27;97683.28;;;5.79;100.00
6829;BME280;17930;48.592;8.868;2023-02-02T11:50:56;97692.97;;;5.84;100.00
6829;BME280;17930;48.592;8.868;2023-02-02T11:53:27;97688.94;;;5.88;100.00
6829;BME280;17930;48.592;8.868;2023-02-02T11:55:56;97696.25;;;5.91;100.00
6829;BME280;17930;48.592;8.868;2023-02-02T11:58:25;97692.91;;;6.02;100.00
6829;BME280;17930;48.592;8.868;2023-02-02T12:00:56;97690.13;;;6.03;100.00
6829;BME280;17930;48.592;8.868;2023-02-02T12:03:25;97690.19;;;5.97;100.00
6829;BME280;17930;48.592;8.868;2023-02-02T12:05:52;97682.13;;;6.05;100.00
6829;BME280;17930;48.592;8.868;2023-02-02T12:08:19;97688.63;;;5.96;100.00
6829;BME280;17930;48.592;8.868;2023-02-02T12:10:53;97673.06;;;5.96;100.00
6829;BME280;17930;48.592;8.868;2023-02-02T12:13:34;97685.59;;;5.99;100.00
6829;BME280;17930;48.592;8.868;2023-02-02T12:16:15;97685.72;;;6.04;100.00
6829;BME280;17930;48.592;8.868;2023-02-02T12:18:54;97685.47;;;5.94;100.00
6829;BME280;17930;48.592;8.868;2023-02-02T12:21:31;97678.69;;;5.93;100.00
6829;BME280;17930;48.592;8.868;2023-02-02T12:24:13;97682.03;;;5.82;100.00
6829;BME280;17930;48.592;8.868;2023-02-02T12:26:47;97681.69;;;5.78;100.00
6829;BME280;17930;48.592;8.868;2023-02-02T12:29:29;97677.00;;;5.87;100.00
6829;BME280;17930;48.592;8.868;2023-02-02T12:32:19;97668.66;;;5.85;100.00
6829;BME280;17930;48.592;8.868;2023-02-02T12:34:57;97666.94;;;5.79;100.00
6829;BME280;17930;48.592;8.868;2023-02-02T12:37:39;97665.94;;;5.80;100.00
6829;BME280;17930;48.592;8.868;2023-02-02T12:40:21;97664.81;;;5.87;100.00
6829;BME280;17930;48.592;8.868;2023-02-02T12:42:59;97668.38;;;6.04;100.00
6829;BME280;17930;48.592;8.868;2023-02-02T12:45:42;97675.38;;;6.04;100.00
6829;BME280;17930;48.592;8.868;2023-02-02T12:48:22;97664.81;;;6.16;100.00
6829;BME280;17930;48.592;8.868;2023-02-02T12:51:02;97655.41;;;6.33;100.00
6829;BME280;17930;48.592;8.868;2023-02-02T12:53:47;97666.22;;;6.30;100.00
6829;BME280;17930;48.592;8.868;2023-02-02T12:56:25;97662.03;;;6.29;100.00
6829;BME280;17930;48.592;8.868;2023-02-02T12:59:03;97667.34;;;6.23;100.00
6829;BME280;17930;48.592;8.868;2023-02-02T13:01:56;97663.91;;;6.11;100.00
6829;BME280;17930;48.592;8.868;2023-02-02T13:04:45;97667.72;;;6.09;100.00
6829;BME280;17930;48.592;8.868;2023-02-02T13:07:31;97678.50;;;6.06;100.00
6829;BME280;17930;48.592;8.868;2023-02-02T13:10:05;97665.47;;;6.01;100.00
6829;BME280;17930;48.592;8.868;2023-02-02T13:12:38;97672.19;;;6.02;100.00
6829;BME280;17930;48.592;8.868;2023-02-02T13:15:11;97672.19;;;6.02;100.00
6829;BME280;17930;48.592;8.868;2023-02-02T13:17:42;97661.44;;;6.05;100.00
6829;BME280;17930;48.592;8.868;2023-02-02T13:20:17;97654.41;;;5.94;100.00
6829;BME280;17930;48.592;8.868;2023-02-02T13:22:46;97662.91;;;6.12;100.00
6829;BME280;17930;48.592;8.868;2023-02-02T13:25:18;97664.16;;;6.21;100.00
6829;BME280;17930;48.592;8.868;2023-02-02T13:27:47;97670.00;;;6.16;100.00
6829;BME280;17930;48.592;8.868;2023-02-02T13:30:25;97663.75;;;6.35;100.00
6829;BME280;17930;48.592;8.868;2023-02-02T13:32:57;97667.75;;;6.20;100.00
6829;BME280;17930;48.592;8.868;2023-02-02T13:35:28;97672.94;;;6.20;100.00